Time;durP1;ratioP1;P1;durP2;ratioP2;P2;SDS_P1;SDS_P2;PMS_P1;PMS_P2;Temp;Humidity;BMP_temperature;BMP_pressure;BME280_temperature;BME280_humidity;BME280_pressure;Samples;Min_cycle;Max_cycle;Signal;HPM_P1;HPM_P2
2023/10/21 00:00:24;;;;;;;0.90;0.70;;;11.40;99.90;;;10.98;100.00;94720.75;5022106;28;20030;-38
2023/10/21 00:02:51;;;;;;;0.85;0.60;;;11.50;99.90;;;11.03;100.00;94723.00;5017079;28;20396;-39
2023/10/21 00:05:17;;;;;;;0.85;0.40;;;11.50;99.90;;;11.14;100.00;94749.34;5019391;28;20759;-38
2023/10/21 00:07:43;;;;;;;1.63;0.60;;;11.60;99.90;;;11.20;100.00;94743.56;5019938;28;20025;-38
2023/10/21 00:10:09;;;;;;;1.30;0.80;;;11.60;99.90;;;11.23;100.00;94758.28;5008258;28;20406;-38
2023/10/21 00:12:36;;;;;;;1.13;0.75;;;11.70;99.90;;;11.30;100.00;94748.91;5021039;28;20121;-39
2023/10/21 00:15:04;;;;;;;0.35;0.35;;;11.70;99.90;;;11.40;100.00;94746.38;5021828;28;20164;-38
2023/10/21 00:17:30;;;;;;;0.93;0.70;;;11.80;99.90;;;11.41;100.00;94742.75;5021178;28;20422;-38
2023/10/21 00:19:56;;;;;;;2.50;0.60;;;11.80;99.90;;;11.55;100.00;94746.91;5023593;28;20532;-38
2023/10/21 00:22:22;;;;;;;2.33;0.70;;;11.90;99.90;;;11.56;100.00;94757.34;5002958;28;20129;-38
2023/10/21 00:24:47;;;;;;;0.60;0.50;;;11.90;99.90;;;11.56;100.00;94759.97;5020663;28;20702;-37
2023/10/21 00:27:13;;;;;;;0.65;0.50;;;12.00;99.90;;;11.54;100.00;94761.91;5020539;28;20056;-39
2023/10/21 00:29:39;;;;;;;0.98;0.52;;;12.00;99.90;;;11.68;100.00;94775.75;5018745;28;20465;-38
2023/10/21 00:32:05;;;;;;;1.20;0.50;;;12.00;99.90;;;11.68;100.00;94770.47;5017009;28;20048;-38
2023/10/21 00:34:31;;;;;;;0.60;0.50;;;12.10;99.90;;;11.72;100.00;94775.38;5017131;28;20033;-38
2023/10/21 00:36:57;;;;;;;2.63;0.52;;;12.10;99.90;;;11.78;100.00;94779.31;5017452;28;20022;-40
2023/10/21 00:39:24;;;;;;;3.30;0.30;;;12.20;99.90;;;11.82;100.00;94770.16;5016231;28;20456;-37
2023/10/21 00:41:49;;;;;;;0.70;0.30;;;12.20;99.90;;;11.79;100.00;94773.03;5020322;28;20033;-38
2023/10/21 00:44:15;;;;;;;0.32;0.32;;;12.20;99.90;;;11.72;100.00;94767.47;5020079;28;20036;-38
2023/10/21 00:46:42;;;;;;;0.68;0.50;;;12.20;99.90;;;11.78;100.00;94782.78;5016613;28;20509;-38
2023/10/21 00:49:08;;;;;;;0.60;0.38;;;12.20;99.90;;;11.80;100.00;94786.13;5019227;28;20088;-38
2023/10/21 00:51:35;;;;;;;0.95;0.38;;;12.20;99.90;;;11.79;100.00;94792.38;5006498;28;20034;-39
2023/10/21 00:54:03;;;;;;;1.88;0.50;;;12.20;99.90;;;11.78;100.00;94803.91;5014369;28;20048;-40
2023/10/21 00:56:28;;;;;;;0.47;0.40;;;12.20;99.90;;;11.70;100.00;94792.28;5001043;28;20040;-39
2023/10/21 00:58:54;;;;;;;1.27;0.50;;;12.10;99.90;;;11.73;100.00;94784.13;5019943;28;20029;-40
2023/10/21 01:01:21;;;;;;;0.60;0.40;;;12.10;99.90;;;11.72;100.00;94796.50;4998846;28;20030;-39
2023/10/21 01:03:47;;;;;;;1.95;0.30;;;12.10;99.90;;;11.72;100.00;94812.34;5018719;28;20037;-38
2023/10/21 01:06:12;;;;;;;1.20;0.52;;;12.10;99.90;;;11.70;100.00;94816.91;4998844;28;20044;-39
2023/10/21 01:08:48;;;;;;;0.63;0.30;;;12.10;99.90;;;11.71;100.00;94823.03;5019153;28;20034;-38
2023/10/21 01:11:14;;;;;;;0.25;0.25;;;12.10;99.90;;;11.66;100.00;94826.03;5022393;28;20180;-38
2023/10/21 01:13:42;;;;;;;0.40;0.40;;;12.10;99.90;;;11.63;100.00;94824.50;5019423;28;20045;-38
2023/10/21 01:16:08;;;;;;;0.60;0.45;;;12.10;99.90;;;11.78;100.00;94848.78;5012472;28;20029;-39
2023/10/21 01:18:34;;;;;;;0.88;0.40;;;12.10;99.90;;;11.75;100.00;94840.28;5020438;28;20689;-42
2023/10/21 01:21:01;;;;;;;1.08;0.60;;;12.10;99.90;;;11.88;100.00;94848.88;5020060;28;20060;-38
2023/10/21 01:23:28;;;;;;;0.70;0.45;;;12.20;99.90;;;11.83;100.00;94851.88;5025063;28;20168;-39
2023/10/21 01:25:54;;;;;;;0.75;0.43;;;12.20;99.90;;;11.97;100.00;94855.19;5017703;28;20045;-40
2023/10/21 01:28:19;;;;;;;0.75;0.50;;;12.30;99.90;;;11.94;100.00;94852.84;5014335;28;20030;-40
2023/10/21 01:30:45;;;;;;;0.30;0.30;;;12.30;99.90;;;11.96;100.00;94867.56;5015271;28;20033;-39
2023/10/21 01:33:11;;;;;;;2.28;0.47;;;12.30;99.90;;;11.95;100.00;94878.25;5018800;28;20076;-39
2023/10/21 01:35:36;;;;;;;2.53;0.35;;;12.30;99.90;;;12.00;100.00;94870.81;5015856;28;20033;-40
2023/10/21 01:38:02;;;;;;;0.63;0.40;;;12.40;99.90;;;12.07;100.00;94874.59;5018332;28;20044;-39
2023/10/21 01:40:28;;;;;;;0.40;0.40;;;12.40;99.90;;;12.11;100.00;94883.94;5017347;28;20033;-38
2023/10/21 01:42:54;;;;;;;0.35;0.22;;;12.50;99.90;;;12.16;100.00;94888.84;5016155;28;20037;-40
2023/10/21 01:45:20;;;;;;;0.13;0.13;;;12.50;99.90;;;12.20;100.00;94895.56;5017485;28;20626;-39
2023/10/21 01:47:45;;;;;;;0.25;0.22;;;12.60;99.90;;;12.24;100.00;94886.44;5016066;28;20033;-41
2023/10/21 01:50:11;;;;;;;1.70;0.30;;;12.60;99.90;;;12.28;100.00;94898.41;5014858;28;20033;-39
2023/10/21 01:52:38;;;;;;;1.73;0.30;;;12.60;99.90;;;12.26;100.00;94894.19;5021750;28;20526;-38
2023/10/21 01:55:06;;;;;;;0.50;0.50;;;12.70;99.90;;;12.28;100.00;94908.16;5014616;28;20084;-38
2023/10/21 01:57:32;;;;;;;0.60;0.35;;;12.70;99.90;;;12.12;100.00;94898.84;5014286;28;20067;-39
2023/10/21 02:00:08;;;;;;;0.30;0.30;;;12.60;99.90;;;12.13;100.00;94912.88;5018274;28;20030;-39
2023/10/21 02:02:35;;;;;;;0.20;0.20;;;12.50;99.90;;;12.07;100.00;94916.88;5022949;28;20393;-40
2023/10/21 02:05:02;;;;;;;0.40;0.30;;;12.50;99.90;;;11.99;100.00;94922.78;5017389;28;20032;-41
2023/10/21 02:07:27;;;;;;;2.38;0.25;;;12.40;99.90;;;11.90;100.00;94928.84;5019315;28;20026;-39
2023/10/21 02:09:53;;;;;;;0.63;0.25;;;12.30;99.90;;;11.83;100.00;94935.53;5005583;28;20084;-40
2023/10/21 02:12:19;;;;;;;2.10;0.30;;;12.20;99.90;;;11.79;100.00;94929.69;5011288;28;20032;-40
2023/10/21 02:14:44;;;;;;;1.75;0.20;;;12.20;99.90;;;11.78;100.00;94943.00;5016474;28;20037;-38
2023/10/21 02:17:10;;;;;;;2.47;0.30;;;12.20;99.90;;;11.83;100.00;94948.75;5011551;28;20061;-41
2023/10/21 02:19:36;;;;;;;0.25;0.20;;;12.20;99.90;;;11.83;100.00;94964.59;5017078;28;20036;-41
2023/10/21 02:22:02;;;;;;;0.35;0.20;;;12.20;99.90;;;11.91;100.00;94967.47;5017663;28;20489;-40
2023/10/21 02:24:27;;;;;;;0.73;0.15;;;12.20;99.90;;;11.92;100.00;94981.53;5016991;28;20060;-41
2023/10/21 02:26:53;;;;;;;0.57;0.10;;;12.30;99.90;;;11.93;100.00;94989.31;5017032;28;20037;-39
2023/10/21 02:29:19;;;;;;;0.10;0.10;;;12.30;99.90;;;11.86;100.00;94993.38;5019706;28;20509;-39
2023/10/21 02:31:44;;;;;;;0.10;0.10;;;12.30;99.90;;;11.83;100.00;94991.81;5016651;28;20064;-41
2023/10/21 02:34:10;;;;;;;0.20;0.20;;;12.20;99.90;;;11.74;100.00;94994.38;5019834;28;20611;-41
2023/10/21 02:36:36;;;;;;;1.25;0.20;;;12.20;99.90;;;11.67;100.00;95003.75;5018106;28;20025;-39
2023/10/21 02:39:07;;;;;;;0.20;0.15;;;12.10;99.90;;;11.58;100.00;95008.78;5017712;28;20462;-39
2023/10/21 02:41:32;;;;;;;1.17;0.20;;;12.00;99.90;;;11.49;100.00;95004.22;5021385;28;20167;-39
2023/10/21 02:43:58;;;;;;;0.57;0.28;;;11.90;99.90;;;11.45;100.00;95013.38;5016572;28;20520;-40
2023/10/21 02:46:23;;;;;;;0.43;0.30;;;11.80;99.90;;;11.39;100.00;95021.75;5010344;28;20092;-38
2023/10/21 02:48:49;;;;;;;0.40;0.20;;;11.80;99.90;;;11.30;100.00;95007.47;5012190;28;20421;-40
2023/10/21 02:51:17;;;;;;;0.70;0.20;;;11.80;99.90;;;11.37;100.00;95028.94;5014421;28;20021;-40
2023/10/21 02:53:44;;;;;;;0.98;0.20;;;11.80;99.90;;;11.37;100.00;95029.78;4984632;28;20478;-40
2023/10/21 02:56:11;;;;;;;1.65;0.20;;;11.80;99.90;;;11.36;100.00;95027.25;5009481;28;20049;-39
2023/10/21 02:58:37;;;;;;;1.02;0.30;;;11.80;99.90;;;11.41;100.00;95039.16;5009694;28;20035;-40
2023/10/21 03:01:25;;;;;;;0.20;0.20;;;11.80;99.90;;;11.41;100.00;95041.78;5013308;28;20073;-40
2023/10/21 03:03:52;;;;;;;3.08;0.20;;;11.80;99.90;;;11.38;100.00;95052.56;5012052;28;20045;-38
2023/10/21 03:06:21;;;;;;;0.85;0.30;;;11.80;99.90;;;11.40;100.00;95060.38;5016449;28;20052;-39
2023/10/21 03:08:47;;;;;;;1.52;0.45;;;11.80;99.90;;;11.41;100.00;95062.03;5009478;28;20033;-40
2023/10/21 03:11:12;;;;;;;0.22;0.20;;;11.80;99.90;;;11.48;100.00;95059.78;4998617;28;20024;-39
2023/10/21 03:13:39;;;;;;;0.55;0.10;;;11.80;99.90;;;11.55;100.00;95068.88;5009445;28;20417;-40
2023/10/21 03:16:13;;;;;;;0.20;0.20;;;11.90;99.90;;;11.48;100.00;95051.84;5011305;28;20033;-41
2023/10/21 03:18:40;;;;;;;0.10;0.10;;;11.90;99.90;;;11.51;100.00;95065.66;5011049;28;20334;-40
2023/10/21 03:21:08;;;;;;;0.30;0.20;;;11.90;99.90;;;11.53;100.00;95073.44;5014357;28;20025;-39
2023/10/21 03:23:34;;;;;;;0.38;0.20;;;11.90;99.90;;;11.53;100.00;95076.94;5012621;28;20033;-39
2023/10/21 03:26:04;;;;;;;0.52;0.20;;;11.90;99.90;;;11.50;100.00;95076.31;5019594;28;20057;-39
2023/10/21 03:28:31;;;;;;;1.10;0.43;;;11.90;99.90;;;11.48;100.00;95073.78;5009098;28;20029;-39
2023/10/21 03:31:01;;;;;;;0.50;0.38;;;11.90;99.90;;;11.54;100.00;95078.63;5011445;28;20056;-39
2023/10/21 03:33:28;;;;;;;0.68;0.40;;;11.90;99.90;;;11.61;100.00;95074.53;4989537;28;20029;-40
2023/10/21 03:36:06;;;;;;;1.77;0.20;;;12.00;99.90;;;11.65;100.00;95086.53;5006591;28;20040;-39
2023/10/21 03:38:32;;;;;;;2.30;0.28;;;12.00;99.90;;;11.71;100.00;95087.00;5009843;28;20042;-39
2023/10/21 03:41:11;;;;;;;0.47;0.25;;;12.00;99.90;;;11.68;100.00;95093.34;5014268;28;20080;-39
2023/10/21 03:43:37;;;;;;;1.65;0.20;;;12.00;99.90;;;11.64;100.00;95095.41;5009664;28;20456;-39
2023/10/21 03:46:06;;;;;;;0.30;0.30;;;12.10;99.90;;;11.70;100.00;95104.66;5011591;28;20033;-39
2023/10/21 03:48:32;;;;;;;0.63;0.20;;;12.10;99.90;;;11.70;100.00;95103.81;5015130;28;20038;-39
2023/10/21 03:51:06;;;;;;;0.20;0.10;;;12.10;99.90;;;11.53;100.00;95084.84;5011582;28;20022;-39
2023/10/21 03:53:33;;;;;;;1.45;0.22;;;12.10;99.90;;;11.72;100.00;95107.16;5010651;28;20065;-38
2023/10/21 03:56:00;;;;;;;0.47;0.22;;;12.00;99.90;;;11.71;100.00;95113.41;5016042;28;20034;-39
2023/10/21 03:58:26;;;;;;;0.40;0.20;;;12.10;99.90;;;11.69;100.00;95125.91;5010004;28;20033;-39
2023/10/21 04:00:52;;;;;;;1.25;0.25;;;12.00;99.90;;;11.65;100.00;95123.50;5017701;28;20029;-38
2023/10/21 04:03:19;;;;;;;0.20;0.20;;;12.00;99.90;;;11.64;100.00;95129.72;5017761;28;20068;-39
2023/10/21 04:05:45;;;;;;;1.92;0.30;;;12.00;99.90;;;11.71;100.00;95137.19;5008408;28;20782;-40
2023/10/21 04:08:11;;;;;;;0.85;0.20;;;12.00;99.90;;;11.71;100.00;95138.00;5016391;28;20036;-40
2023/10/21 04:10:37;;;;;;;0.60;0.20;;;12.10;99.90;;;11.71;100.00;95131.91;5011732;28;20026;-39
2023/10/21 04:13:03;;;;;;;0.85;0.38;;;12.10;99.90;;;11.85;100.00;95136.94;5014835;28;20104;-39
2023/10/21 04:15:31;;;;;;;0.35;0.30;;;12.10;99.90;;;11.84;100.00;95132.59;5011343;28;20043;-40
2023/10/21 04:17:57;;;;;;;0.50;0.20;;;12.20;99.90;;;11.86;100.00;95128.03;5008358;28;20026;-39
2023/10/21 04:20:23;;;;;;;0.70;0.10;;;12.30;99.90;;;11.99;100.00;95138.53;5015353;28;20033;-40
2023/10/21 04:22:49;;;;;;;2.38;0.30;;;12.40;99.90;;;12.08;100.00;95136.94;5019399;28;20373;-39
2023/10/21 04:25:14;;;;;;;1.00;0.13;;;12.40;99.90;;;12.13;100.00;95135.66;5021885;28;20428;-38
2023/10/21 04:27:40;;;;;;;0.22;0.20;;;12.50;99.90;;;12.21;100.00;95153.53;5018494;28;20107;-38
2023/10/21 04:30:08;;;;;;;1.38;0.30;;;12.50;99.90;;;12.17;100.00;95152.09;5019541;28;20028;-39
2023/10/21 04:32:33;;;;;;;0.43;0.28;;;12.50;99.90;;;12.08;100.00;95152.81;5022892;28;20182;-39
2023/10/21 04:35:00;;;;;;;0.40;0.30;;;12.50;99.90;;;12.05;100.00;95161.00;5016292;28;20067;-39
2023/10/21 04:37:26;;;;;;;0.45;0.30;;;12.40;99.90;;;11.91;100.00;95169.97;5015947;28;20486;-40
2023/10/21 04:39:53;;;;;;;1.33;0.38;;;12.30;99.90;;;11.94;100.00;95175.88;5015649;28;20040;-39
2023/10/21 04:42:18;;;;;;;1.20;0.38;;;12.30;99.90;;;11.91;100.00;95176.09;5018629;28;20042;-40
2023/10/21 04:44:44;;;;;;;0.98;0.30;;;12.30;99.90;;;11.78;100.00;95168.25;5015410;28;20168;-41
2023/10/21 04:47:12;;;;;;;2.55;0.30;;;12.30;99.90;;;11.87;100.00;95190.47;5018589;28;20030;-40
2023/10/21 04:49:37;;;;;;;1.23;0.30;;;12.20;99.90;;;11.87;100.00;95185.19;5012550;28;20250;-39
2023/10/21 04:52:04;;;;;;;0.47;0.25;;;12.30;99.90;;;11.87;100.00;95189.66;5016032;28;20041;-40
2023/10/21 04:54:29;;;;;;;0.35;0.20;;;12.20;99.90;;;11.89;100.00;95187.72;4998671;28;20388;-40
2023/10/21 04:56:55;;;;;;;1.15;0.35;;;12.20;99.90;;;11.87;100.00;95185.19;5015649;28;20038;-40
2023/10/21 04:59:21;;;;;;;0.47;0.30;;;12.20;99.90;;;11.92;100.00;95192.81;5019921;28;20033;-40
2023/10/21 05:01:47;;;;;;;0.65;0.30;;;12.30;99.90;;;11.96;100.00;95199.53;5013177;28;20064;-39
2023/10/21 05:04:12;;;;;;;0.40;0.30;;;12.30;99.90;;;11.96;100.00;95205.63;5018410;28;20024;-39
2023/10/21 05:06:38;;;;;;;1.45;0.25;;;12.30;99.90;;;11.99;100.00;95208.06;5016508;28;20378;-38
2023/10/21 05:09:04;;;;;;;0.73;0.28;;;12.40;99.90;;;12.08;100.00;95213.56;5018256;28;23111;-39
2023/10/21 05:11:30;;;;;;;0.93;0.30;;;12.40;99.90;;;12.07;100.00;95218.00;5016879;28;20697;-41
2023/10/21 05:13:56;;;;;;;0.32;0.17;;;12.50;99.90;;;12.14;100.00;95234.25;5018128;28;20084;-40
2023/10/21 05:16:22;;;;;;;0.50;0.30;;;12.50;99.90;;;12.14;100.00;95227.16;5020341;28;20033;-39
2023/10/21 05:18:48;;;;;;;0.52;0.30;;;12.50;99.90;;;12.21;100.00;95238.09;5014030;28;20441;-39
2023/10/21 05:21:15;;;;;;;2.45;0.35;;;12.50;99.90;;;12.21;100.00;95240.72;5014105;28;20055;-42
2023/10/21 05:23:40;;;;;;;0.80;0.32;;;12.60;99.90;;;12.10;100.00;95233.63;5016221;28;20064;-39
2023/10/21 05:26:06;;;;;;;0.30;0.30;;;12.60;99.90;;;12.21;100.00;95256.56;5016822;28;20120;-40
2023/10/21 05:28:32;;;;;;;3.20;0.32;;;12.60;99.90;;;12.22;100.00;95256.47;5015547;28;20387;-40
2023/10/21 05:30:57;;;;;;;0.20;0.20;;;12.60;99.90;;;12.28;100.00;95265.72;5015549;28;20084;-40
2023/10/21 05:33:24;;;;;;;0.82;0.32;;;12.60;99.90;;;12.27;100.00;95274.59;5013638;28;20437;-39
2023/10/21 05:35:49;;;;;;;0.60;0.28;;;12.70;99.90;;;12.28;100.00;95278.94;5012425;28;20164;-39
2023/10/21 05:38:15;;;;;;;0.98;0.20;;;12.70;99.90;;;12.29;100.00;95285.03;5014927;28;20643;-39
2023/10/21 05:40:41;;;;;;;0.30;0.28;;;12.70;99.90;;;12.31;100.00;95293.69;5018162;28;20068;-40
2023/10/21 05:43:07;;;;;;;1.20;0.20;;;12.70;99.90;;;12.27;100.00;95298.38;5017879;28;20076;-38
2023/10/21 05:45:34;;;;;;;1.75;0.30;;;12.70;99.90;;;12.28;100.00;95315.09;5014172;28;20585;-40
2023/10/21 05:48:00;;;;;;;0.15;0.10;;;12.70;99.90;;;12.25;100.00;95315.31;5017442;28;20069;-39
2023/10/21 05:50:25;;;;;;;1.67;0.20;;;12.60;99.90;;;12.15;100.00;95316.03;5020052;28;20474;-38
2023/10/21 05:52:51;;;;;;;0.50;0.20;;;12.60;99.90;;;12.21;100.00;95320.00;5018553;28;20053;-40
2023/10/21 05:55:18;;;;;;;1.27;0.30;;;12.60;99.90;;;12.19;100.00;95322.75;5016356;28;20175;-38
2023/10/21 05:57:44;;;;;;;0.30;0.20;;;12.50;99.90;;;12.15;100.00;95337.16;5014650;28;20041;-40
2023/10/21 06:00:10;;;;;;;0.35;0.20;;;12.50;99.90;;;12.07;100.00;95338.69;5015228;28;20060;-42
2023/10/21 06:02:36;;;;;;;0.80;0.22;;;12.50;99.90;;;11.99;100.00;95347.22;5021556;28;20623;-39
2023/10/21 06:05:05;;;;;;;0.20;0.20;;;12.40;99.90;;;11.90;100.00;95351.38;5015902;28;20037;-42
2023/10/21 06:07:31;;;;;;;0.28;0.20;;;12.30;99.90;;;11.85;100.00;95356.13;5012364;28;20025;-38
2023/10/21 06:09:56;;;;;;;0.80;0.30;;;12.20;99.90;;;11.72;100.00;95347.41;5020338;28;20497;-39
2023/10/21 06:12:22;;;;;;;0.28;0.20;;;12.20;99.90;;;11.80;100.00;95360.91;5013425;28;20099;-38
2023/10/21 06:14:48;;;;;;;0.77;0.20;;;12.20;99.90;;;11.78;100.00;95370.75;5010522;28;22914;-38
2023/10/21 06:17:14;;;;;;;0.20;0.20;;;12.20;99.90;;;11.72;100.00;95361.50;5012186;28;20428;-38
2023/10/21 06:19:39;;;;;;;3.22;0.40;;;12.10;99.90;;;11.73;100.00;95383.44;5017016;28;20037;-38
2023/10/21 06:22:06;;;;;;;0.32;0.30;;;12.10;99.90;;;11.75;100.00;95385.00;5013927;28;20766;-40
2023/10/21 06:24:31;;;;;;;0.45;0.30;;;12.10;99.90;;;11.71;100.00;95372.16;5015366;28;20069;-38
2023/10/21 06:26:58;;;;;;;0.45;0.30;;;12.10;99.90;;;11.72;100.00;95381.75;5018585;28;20078;-39
2023/10/21 06:29:24;;;;;;;0.88;0.40;;;12.10;99.90;;;11.72;100.00;95387.03;5018296;28;20527;-38
2023/10/21 06:31:50;;;;;;;0.82;0.40;;;12.10;99.90;;;11.67;100.00;95384.75;5017118;28;20552;-38
2023/10/21 06:34:16;;;;;;;0.40;0.35;;;12.10;99.90;;;11.67;100.00;95382.09;5016839;28;20040;-39
2023/10/21 06:36:42;;;;;;;0.63;0.40;;;12.00;99.90;;;11.68;100.00;95390.84;5015452;28;20029;-39
2023/10/21 06:39:08;;;;;;;0.82;0.40;;;12.00;99.90;;;11.58;100.00;95395.97;5016955;28;20084;-39
2023/10/21 06:41:33;;;;;;;0.68;0.32;;;12.00;99.90;;;11.59;100.00;95409.06;5017293;28;20057;-38
2023/10/21 06:44:00;;;;;;;1.02;0.45;;;12.00;99.90;;;11.55;100.00;95406.75;5014622;28;20073;-38
2023/10/21 06:46:27;;;;;;;1.13;0.50;;;12.00;99.90;;;11.54;100.00;95412.97;5017822;28;20026;-39
2023/10/21 06:48:54;;;;;;;0.40;0.40;;;11.90;99.90;;;11.50;100.00;95422.06;4996846;28;21637;-38
2023/10/21 06:51:19;;;;;;;1.23;0.45;;;11.90;99.90;;;11.45;100.00;95435.63;5018356;28;20036;-39
2023/10/21 06:53:45;;;;;;;0.93;0.40;;;11.90;99.90;;;11.40;100.00;95435.94;5015779;28;20037;-39
2023/10/21 06:56:12;;;;;;;0.95;0.47;;;11.80;99.90;;;11.32;100.00;95437.44;5018007;28;20106;-40
2023/10/21 06:58:39;;;;;;;0.57;0.35;;;11.80;99.90;;;11.39;100.00;95444.78;5015024;28;20048;-39
2023/10/21 07:01:08;;;;;;;1.05;0.30;;;11.80;99.90;;;11.42;100.00;95447.22;5016732;28;20025;-39
2023/10/21 07:03:34;;;;;;;0.32;0.30;;;11.80;99.90;;;11.48;100.00;95459.13;5014259;28;20401;-39
2023/10/21 07:05:59;;;;;;;0.85;0.32;;;11.90;99.90;;;11.51;100.00;95466.84;5014203;28;20040;-38
2023/10/21 07:08:25;;;;;;;0.88;0.40;;;11.90;99.90;;;11.52;100.00;95460.63;5017773;28;20033;-40
2023/10/21 07:10:53;;;;;;;1.85;0.50;;;11.90;99.90;;;11.58;100.00;95469.91;5013809;28;20144;-40
2023/10/21 07:13:20;;;;;;;1.20;0.32;;;12.00;99.90;;;11.64;100.00;95480.84;5014144;28;20500;-38
2023/10/21 07:15:47;;;;;;;2.53;0.47;;;12.10;99.90;;;11.85;100.00;95485.53;5017105;28;20051;-39
2023/10/21 07:18:14;;;;;;;1.27;0.30;;;12.20;99.90;;;11.91;100.00;95476.34;5016719;28;20397;-38
2023/10/21 07:20:40;;;;;;;0.50;0.50;;;12.30;99.90;;;12.08;100.00;95491.81;5014398;28;20041;-38
2023/10/21 07:23:08;;;;;;;1.55;0.30;;;12.40;99.90;;;12.24;100.00;95494.19;5017942;28;20568;-41
2023/10/21 07:25:36;;;;;;;0.68;0.20;;;12.60;99.90;;;12.37;100.00;95481.72;5020698;28;20044;-38
2023/10/21 07:28:03;;;;;;;1.00;0.30;;;12.80;99.90;;;12.47;100.00;95489.81;5016616;28;20064;-38
2023/10/21 07:30:29;;;;;;;0.25;0.20;;;12.90;99.90;;;12.59;100.00;95483.59;5013594;28;20081;-39
2023/10/21 07:32:55;;;;;;;0.65;0.25;;;13.00;99.90;;;12.70;100.00;95495.16;5012264;28;20536;-39
2023/10/21 07:35:21;;;;;;;0.22;0.22;;;13.10;99.90;;;12.64;100.00;95477.13;5014931;28;20037;-38
2023/10/21 07:37:47;;;;;;;1.85;0.32;;;13.20;99.90;;;12.89;100.00;95516.63;5017920;28;20037;-39
2023/10/21 07:40:13;;;;;;;0.30;0.20;;;13.30;99.90;;;12.98;100.00;95526.50;5012595;28;20033;-38
2023/10/21 07:42:40;;;;;;;0.30;0.10;;;13.40;99.90;;;13.13;100.00;95529.75;5006411;28;20037;-39
2023/10/21 07:45:06;;;;;;;0.95;0.40;;;13.50;99.90;;;13.33;100.00;95536.22;5016168;28;20076;-38
2023/10/21 07:47:33;;;;;;;0.43;0.22;;;13.70;99.90;;;13.52;100.00;95526.81;4990164;28;20033;-38
2023/10/21 07:50:02;;;;;;;0.32;0.17;;;14.00;99.90;;;13.84;100.00;95545.47;5014989;28;20025;-38
2023/10/21 07:52:28;;;;;;;2.60;0.38;;;14.20;99.90;;;14.04;100.00;95553.63;5020038;28;20545;-37
2023/10/21 07:54:54;;;;;;;1.42;0.40;;;14.40;99.90;;;14.08;100.00;95553.25;5019873;28;20029;-39
2023/10/21 07:57:21;;;;;;;0.28;0.20;;;14.40;99.90;;;14.02;100.00;95558.22;5016577;28;20450;-39
2023/10/21 07:59:46;;;;;;;0.70;0.20;;;14.40;99.90;;;13.91;100.00;95565.22;5015850;28;20072;-38
2023/10/21 08:02:13;;;;;;;1.45;0.32;;;14.30;99.90;;;13.74;100.00;95568.34;5007594;28;20037;-40
2023/10/21 08:04:38;;;;;;;1.17;0.28;;;14.20;99.90;;;13.71;100.00;95579.19;5012097;28;20044;-39
2023/10/21 08:07:04;;;;;;;0.68;0.20;;;14.10;99.90;;;13.67;100.00;95580.38;5018519;28;20034;-39
2023/10/21 08:09:30;;;;;;;0.55;0.30;;;14.10;99.90;;;13.64;100.00;95589.44;5016517;28;20081;-40
2023/10/21 08:11:56;;;;;;;1.02;0.50;;;14.10;99.90;;;13.71;100.00;95593.28;5001235;28;20112;-38
2023/10/21 08:14:22;;;;;;;1.15;0.28;;;14.10;99.90;;;13.70;100.00;95590.75;5018819;28;20066;-39
2023/10/21 08:16:47;;;;;;;1.40;0.20;;;14.10;99.90;;;13.64;100.00;95578.84;5021772;28;20026;-38
2023/10/21 08:19:13;;;;;;;0.98;0.38;;;14.10;99.90;;;13.74;100.00;95590.38;4999592;28;20041;-40
2023/10/21 08:21:39;;;;;;;0.30;0.20;;;14.20;99.90;;;13.81;100.00;95603.16;5014409;28;20040;-39
2023/10/21 08:24:07;;;;;;;0.93;0.30;;;14.20;99.90;;;13.86;100.00;95609.78;5007743;28;20671;-39
2023/10/21 08:26:33;;;;;;;0.90;0.50;;;14.20;99.90;;;13.90;100.00;95608.56;5017408;28;20033;-40
2023/10/21 08:28:59;;;;;;;0.88;0.43;;;14.30;99.90;;;13.92;100.00;95619.88;5000444;28;20587;-40
2023/10/21 08:31:25;;;;;;;0.82;0.30;;;14.30;99.90;;;13.94;100.00;95615.31;5021133;28;20057;-39
2023/10/21 08:33:52;;;;;;;1.20;0.40;;;14.40;99.90;;;13.96;100.00;95628.44;5015252;28;20124;-39
2023/10/21 08:36:20;;;;;;;0.70;0.30;;;14.40;99.90;;;14.00;100.00;95621.94;5022489;28;20052;-39
2023/10/21 08:38:50;;;;;;;0.65;0.30;;;14.40;99.90;;;14.01;100.00;95634.22;5019855;28;20025;-40
2023/10/21 08:41:16;;;;;;;0.28;0.22;;;14.40;99.90;;;14.02;100.00;95635.06;5020826;28;20040;-40
2023/10/21 08:43:47;;;;;;;1.77;0.38;;;14.50;99.90;;;14.02;100.00;95635.91;5020428;28;20071;-39
2023/10/21 08:46:17;;;;;;;0.85;0.40;;;14.40;99.90;;;13.97;100.00;95640.72;5021989;28;20030;-41
2023/10/21 08:48:46;;;;;;;1.50;0.30;;;14.40;99.90;;;13.88;100.00;95649.41;5018200;28;20033;-39
2023/10/21 08:51:19;;;;;;;1.02;0.40;;;14.30;99.90;;;13.84;100.00;95653.25;5015969;28;20021;-39
2023/10/21 08:53:49;;;;;;;4.15;0.80;;;14.20;99.90;;;13.79;100.00;95656.25;5006296;28;20044;-39
2023/10/21 08:56:15;;;;;;;0.93;0.40;;;14.20;99.90;;;13.70;100.00;95647.22;5021074;28;20493;-39
2023/10/21 08:58:42;;;;;;;0.88;0.40;;;14.10;99.90;;;13.74;100.00;95661.91;5019064;28;20513;-40
2023/10/21 09:01:09;;;;;;;2.15;0.40;;;14.10;99.90;;;13.75;100.00;95663.59;5018954;28;20389;-40
2023/10/21 09:03:34;;;;;;;0.30;0.30;;;14.10;99.90;;;13.78;100.00;95662.50;5016683;28;20037;-39
2023/10/21 09:06:07;;;;;;;2.28;0.40;;;14.10;99.90;;;13.83;100.00;95670.09;5020210;28;20120;-39
2023/10/21 09:08:34;;;;;;;2.00;0.40;;;14.20;99.90;;;13.86;100.00;95681.31;5016672;28;20439;-41
2023/10/21 09:11:00;;;;;;;0.85;0.20;;;14.20;99.90;;;13.82;100.00;95674.56;5018716;28;20512;-39
2023/10/21 09:13:34;;;;;;;1.63;0.40;;;14.20;99.90;;;14.00;100.00;95685.53;5019045;28;20076;-39
2023/10/21 09:16:01;;;;;;;0.88;0.30;;;14.30;99.90;;;14.06;100.00;95692.16;5014948;28;20132;-39
2023/10/21 09:18:27;;;;;;;1.08;0.50;;;14.40;99.90;;;14.15;100.00;95696.75;5017508;28;20152;-39
2023/10/21 09:20:52;;;;;;;2.38;0.50;;;14.50;99.90;;;14.28;100.00;95692.19;5016634;28;20037;-43
2023/10/21 09:23:18;;;;;;;0.40;0.30;;;14.60;99.90;;;14.43;100.00;95707.84;5015128;28;20104;-40
2023/10/21 09:25:52;;;;;;;0.77;0.20;;;14.80;99.90;;;14.60;100.00;95711.81;5016066;28;20051;-39
2023/10/21 09:28:24;;;;;;;0.50;0.20;;;15.00;99.90;;;14.81;100.00;95711.91;5020534;28;20037;-39
2023/10/21 09:30:58;;;;;;;2.30;0.80;;;15.20;99.90;;;14.90;100.00;95705.84;5011854;28;20604;-38
2023/10/21 09:33:26;;;;;;;0.50;0.30;;;15.30;99.90;;;15.09;100.00;95713.16;5013603;28;20033;-41
2023/10/21 09:36:07;;;;;;;0.98;0.43;;;15.40;99.90;;;15.22;100.00;95713.84;5016369;28;20037;-40
2023/10/21 09:38:37;;;;;;;1.00;0.40;;;15.60;99.90;;;15.24;100.00;95717.22;5018308;28;20030;-39
2023/10/21 09:41:08;;;;;;;5.40;3.50;;;15.60;99.90;;;15.29;100.00;95714.19;5019126;28;20052;-39
2023/10/21 09:43:37;;;;;;;2.07;0.60;;;15.60;99.90;;;15.32;100.00;95711.25;5017715;28;20060;-39
2023/10/21 09:46:05;;;;;;;1.08;0.30;;;15.70;99.90;;;15.38;100.00;95702.78;5011184;28;20074;-39
2023/10/21 09:48:37;;;;;;;0.65;0.30;;;15.80;99.90;;;15.62;100.00;95717.66;5017240;28;20112;-40
2023/10/21 09:51:06;;;;;;;0.85;0.50;;;16.00;99.90;;;15.75;100.00;95709.50;4999341;28;20022;-39
2023/10/21 09:53:39;;;;;;;0.80;0.30;;;16.10;99.90;;;15.77;99.35;95716.41;5002401;28;20038;-40
2023/10/21 09:56:04;;;;;;;1.52;0.40;;;16.20;99.90;;;15.68;100.00;95719.78;5016614;28;20033;-39
2023/10/21 09:58:31;;;;;;;0.95;0.30;;;16.10;99.90;;;15.59;98.21;95726.69;5017525;28;20037;-40
2023/10/21 10:01:02;;;;;;;0.70;0.40;;;16.00;99.90;;;15.54;100.00;95713.00;5015145;28;20321;-40
2023/10/21 10:03:34;;;;;;;2.45;0.50;;;15.90;99.90;;;15.65;98.45;95725.38;5002468;28;20037;-40
2023/10/21 10:06:05;;;;;;;0.82;0.38;;;16.00;99.90;;;15.79;96.29;95724.22;5013653;28;20029;-40
2023/10/21 10:08:34;;;;;;;1.85;0.40;;;16.20;99.90;;;15.82;88.74;95706.19;5013284;28;20068;-39
2023/10/21 10:11:12;;;;;;;1.00;0.40;;;16.30;99.90;;;15.93;89.08;95713.25;4991781;28;21095;-38